Terminal Aerodrome Forecast
Issued by NWS

Home | Current Version | Previous Version | Graphics & Text | Print | Product List | Glossary On
Versions: 1 2 3 4 5 6 7 8 9 10 11 12 13 14 15 16 17
000
FTUS42 KMHX 151412 AAC
TAFISO
TAF AMD
KISO 151412Z 1514/1612 36010KT 4SM BR OVC009
     FM151500 02010G15KT P6SM SCT007 OVC015
     FM151700 04010G15KT P6SM SCT015 OVC035
     FM152000 04010KT 6SM -RA SCT015 OVC035
     FM160600 04008KT P6SM VCSH SCT015 OVC035
      AMD LTD TO CLD VIS AND WIND=

USA.gov is the U.S. government's official web portal to all federal, state and local government web resources and services.